createdAt,value
2018-12-06T00:01:01.387Z,7.89
2018-12-06T00:03:44.258Z,7.87
2018-12-06T00:06:28.127Z,7.83
2018-12-06T00:09:09.916Z,7.79
2018-12-06T00:11:52.643Z,7.84
2018-12-06T00:14:35.499Z,7.85
2018-12-06T00:17:18.424Z,7.85
2018-12-06T00:20:00.918Z,7.87
2018-12-06T00:22:43.527Z,7.85
2018-12-06T00:25:27.144Z,7.91
2018-12-06T00:28:10.200Z,7.82
2018-12-06T00:30:51.731Z,7.80
2018-12-06T00:33:34.447Z,7.89
2018-12-06T00:36:16.585Z,7.81
2018-12-06T00:38:59.255Z,7.80
2018-12-06T00:41:41.721Z,7.71
2018-12-06T00:44:23.879Z,7.70
2018-12-06T00:47:06.337Z,7.67
2018-12-06T00:49:49.252Z,7.65
2018-12-06T00:52:31.323Z,7.67
2018-12-06T00:55:13.896Z,7.61
2018-12-06T00:57:57.047Z,7.57
2018-12-06T01:00:38.895Z,7.60
2018-12-06T01:03:20.444Z,7.55
2018-12-06T01:06:03.128Z,7.56
2018-12-06T01:08:45.334Z,7.57
2018-12-06T01:11:27.107Z,7.67
2018-12-06T01:14:09.545Z,7.59
2018-12-06T01:16:51.745Z,7.59
2018-12-06T01:19:34.806Z,7.55
2018-12-06T01:22:17.042Z,7.54
2018-12-06T01:24:59.176Z,7.54
2018-12-06T01:27:41.848Z,7.52
2018-12-06T01:30:24.327Z,7.57
2018-12-06T01:33:06.460Z,7.54
2018-12-06T01:35:48.787Z,7.61
2018-12-06T01:38:32.536Z,7.58
2018-12-06T01:41:14.556Z,7.56
2018-12-06T01:43:57.163Z,7.66
2018-12-06T01:46:39.411Z,7.61
2018-12-06T01:49:21.875Z,7.68
2018-12-06T01:52:04.337Z,7.62
2018-12-06T01:54:47.072Z,7.64
2018-12-06T01:57:29.203Z,7.64
2018-12-06T02:00:12.097Z,7.68
2018-12-06T02:02:54.343Z,7.67
2018-12-06T02:05:36.418Z,7.71
2018-12-06T02:08:18.892Z,7.76
2018-12-06T02:11:01.236Z,7.74
2018-12-06T02:13:42.936Z,7.71
2018-12-06T02:16:25.446Z,7.75
2018-12-06T02:19:08.209Z,7.77
2018-12-06T02:21:50.356Z,7.74
2018-12-06T02:24:32.874Z,7.77
2018-12-06T02:27:16.169Z,7.79
2018-12-06T02:29:57.712Z,7.81
2018-12-06T02:32:41.832Z,7.78
2018-12-06T02:35:23.726Z,7.78
2018-12-06T02:38:06.184Z,7.77
2018-12-06T02:40:49.784Z,7.77
2018-12-06T02:43:32.174Z,7.80
2018-12-06T02:46:13.765Z,7.81
2018-12-06T02:48:56.226Z,7.83
2018-12-06T02:51:38.548Z,7.87
2018-12-06T02:54:20.972Z,7.89
2018-12-06T02:57:04.027Z,7.87
2018-12-06T02:59:45.844Z,7.89
2018-12-06T03:02:28.502Z,7.97
2018-12-06T03:05:11.384Z,7.93
2018-12-06T03:07:53.263Z,7.99
2018-12-06T03:10:35.656Z,7.99
2018-12-06T03:13:18.444Z,7.99
2018-12-06T03:16:00.507Z,8.00
2018-12-06T03:18:42.615Z,8.01
2018-12-06T03:21:25.143Z,8.03
2018-12-06T03:24:07.207Z,8.04
2018-12-06T03:26:49.845Z,8.00
2018-12-06T03:29:32.202Z,7.98
2018-12-06T03:32:14.705Z,7.99
2018-12-06T03:34:57.002Z,8.07
2018-12-06T03:37:38.622Z,8.09
2018-12-06T03:40:21.075Z,8.11
2018-12-06T03:43:03.516Z,8.09
2018-12-06T03:45:45.901Z,8.09
2018-12-06T03:48:28.475Z,8.15
2018-12-06T03:51:10.830Z,8.12
2018-12-06T03:53:53.661Z,8.17
2018-12-06T03:56:35.679Z,8.13
2018-12-06T03:59:18.033Z,8.16
2018-12-06T04:01:59.670Z,8.20
2018-12-06T04:04:42.420Z,8.19
2018-12-06T04:07:24.408Z,8.19
2018-12-06T04:10:07.604Z,8.20
2018-12-06T04:12:49.468Z,8.17
2018-12-06T04:15:32.086Z,8.19
2018-12-06T04:18:14.291Z,8.13
2018-12-06T04:20:56.721Z,8.08
2018-12-06T04:23:39.163Z,7.96
2018-12-06T04:26:21.716Z,7.95
2018-12-06T04:29:04.132Z,7.97
2018-12-06T04:31:46.468Z,7.94
2018-12-06T04:34:27.990Z,7.93
2018-12-06T04:37:10.427Z,7.94
2018-12-06T04:39:52.815Z,7.98
2018-12-06T04:42:35.374Z,7.99
2018-12-06T04:45:17.800Z,8.04
2018-12-06T04:48:00.301Z,8.04
2018-12-06T04:50:42.724Z,8.07
2018-12-06T04:53:25.219Z,8.11
2018-12-06T04:56:07.491Z,8.13
2018-12-06T04:58:50.333Z,8.19
2018-12-06T05:01:32.415Z,8.20
2018-12-06T05:04:14.135Z,8.22
2018-12-06T05:06:56.874Z,8.27
2018-12-06T05:09:38.754Z,8.26
2018-12-06T05:12:21.191Z,8.36
2018-12-06T05:15:02.787Z,8.38
2018-12-06T05:17:45.112Z,8.41
2018-12-06T05:20:26.703Z,8.50
2018-12-06T05:23:09.183Z,8.47
2018-12-06T05:25:52.597Z,8.46
2018-12-06T05:28:34.172Z,8.45
2018-12-06T05:31:16.723Z,8.48
2018-12-06T05:33:58.970Z,8.51
2018-12-06T05:36:41.364Z,8.41
2018-12-06T05:39:23.739Z,8.45
2018-12-06T05:42:42.601Z,8.52
2018-12-06T05:45:25.843Z,8.50
2018-12-06T05:48:08.976Z,8.48
2018-12-06T05:50:51.616Z,8.45
2018-12-06T05:53:34.821Z,8.39
2018-12-06T05:56:18.749Z,8.36
2018-12-06T05:59:01.360Z,8.30
2018-12-06T06:01:43.447Z,8.28
2018-12-06T06:04:26.800Z,8.26
2018-12-06T06:07:10.154Z,8.25
2018-12-06T06:09:53.949Z,8.20
2018-12-06T06:12:37.818Z,8.19
2018-12-06T06:15:19.911Z,8.16
2018-12-06T06:18:04.563Z,8.11
2018-12-06T06:20:47.125Z,8.12
2018-12-06T06:23:29.778Z,8.05
2018-12-06T06:26:12.759Z,8.01
2018-12-06T06:28:54.798Z,7.97
2018-12-06T06:31:37.985Z,7.95
2018-12-06T06:34:47.151Z,7.93
2018-12-06T06:41:06.530Z,7.89
2018-12-06T06:43:48.564Z,7.91
2018-12-06T06:46:31.996Z,7.92
2018-12-06T06:49:15.254Z,8.05
2018-12-06T06:51:57.514Z,8.04
2018-12-06T06:54:41.217Z,8.08
2018-12-06T06:57:28.031Z,8.09
2018-12-06T07:00:16.183Z,8.17
2018-12-06T07:03:00.030Z,8.13
2018-12-06T07:05:44.375Z,8.19
2018-12-06T07:08:27.420Z,8.18
2018-12-06T07:11:10.263Z,8.24
2018-12-06T07:13:54.247Z,8.28
2018-12-06T07:16:36.942Z,8.26
2018-12-06T07:19:19.247Z,8.33
2018-12-06T07:22:02.024Z,8.30
2018-12-06T07:24:44.076Z,8.38
2018-12-06T07:27:27.963Z,8.36
2018-12-06T07:30:12.503Z,8.33
2018-12-06T07:32:55.903Z,8.39
2018-12-06T07:35:42.179Z,8.39
2018-12-06T07:38:25.240Z,8.43
2018-12-06T07:41:07.567Z,8.42
2018-12-06T07:43:49.919Z,8.47
2018-12-06T07:46:35.787Z,8.53
2018-12-06T07:49:18.179Z,8.52
2018-12-06T07:52:00.836Z,8.54
2018-12-06T07:54:46.372Z,8.59
2018-12-06T07:57:30.292Z,8.62
2018-12-06T08:00:14.875Z,8.61
2018-12-06T08:02:59.190Z,8.66
2018-12-06T08:05:43.427Z,8.65
2018-12-06T08:08:25.336Z,8.68
2018-12-06T08:11:08.144Z,8.68
2018-12-06T08:13:51.231Z,8.64
2018-12-06T08:16:37.200Z,8.73
2018-12-06T08:19:21.165Z,8.70
2018-12-06T08:22:04.193Z,8.75
2018-12-06T08:24:49.058Z,8.73
2018-12-06T08:27:42.424Z,8.77
2018-12-06T08:30:29.563Z,8.79
2018-12-06T08:33:12.238Z,8.83
2018-12-06T08:35:57.103Z,8.90
2018-12-06T08:38:39.728Z,8.96
2018-12-06T08:41:24.743Z,8.98
2018-12-06T08:44:08.047Z,8.97
2018-12-06T08:46:50.299Z,9.00
2018-12-06T08:49:32.883Z,8.99
2018-12-06T08:52:15.705Z,9.01
2018-12-06T08:54:58.602Z,9.02
2018-12-06T08:57:42.683Z,9.02
2018-12-06T09:00:25.591Z,9.11
2018-12-06T09:03:09.538Z,9.10
2018-12-06T09:05:53.559Z,9.13
2018-12-06T09:08:36.043Z,9.15
2018-12-06T09:11:18.925Z,9.19
2018-12-06T09:14:01.828Z,9.23
2018-12-06T09:16:43.787Z,9.28
2018-12-06T09:19:29.259Z,9.26
2018-12-06T09:22:12.182Z,9.27
2018-12-06T09:24:55.922Z,9.32
2018-12-06T09:27:41.626Z,9.41
2018-12-06T09:30:23.716Z,9.37
2018-12-06T09:33:07.997Z,9.45
2018-12-06T09:35:53.791Z,9.44
2018-12-06T09:38:36.592Z,9.51
2018-12-06T09:41:19.623Z,9.48
2018-12-06T09:44:03.304Z,9.50
2018-12-06T09:46:46.945Z,9.50
2018-12-06T09:49:30.086Z,9.58
2018-12-06T09:52:12.231Z,9.58
2018-12-06T09:54:55.814Z,9.64
2018-12-06T09:57:39.599Z,9.65
2018-12-06T10:00:22.652Z,9.64
2018-12-06T10:03:05.443Z,9.67
2018-12-06T10:05:47.547Z,9.66
2018-12-06T10:08:30.971Z,9.70
2018-12-06T10:11:15.039Z,9.80
2018-12-06T10:13:59.190Z,9.79
2018-12-06T10:16:48.043Z,9.79
2018-12-06T10:19:30.632Z,9.91
2018-12-06T10:22:14.208Z,9.87
2018-12-06T10:24:56.866Z,9.83
2018-12-06T10:27:41.752Z,9.85
2018-12-06T10:30:24.674Z,9.83
2018-12-06T10:33:08.691Z,9.88
2018-12-06T10:35:51.589Z,9.96
2018-12-06T10:38:34.071Z,9.96
2018-12-06T10:41:16.947Z,9.98
2018-12-06T10:43:59.177Z,10.00
2018-12-06T10:46:43.004Z,10.00
2018-12-06T10:49:26.899Z,10.01
2018-12-06T10:52:09.153Z,10.05
2018-12-06T10:54:54.190Z,10.09
2018-12-06T10:57:38.304Z,10.14
2018-12-06T11:00:27.595Z,10.18
2018-12-06T11:03:14.246Z,10.19
2018-12-06T11:06:07.299Z,10.19
2018-12-06T11:08:51.736Z,10.27
2018-12-06T11:11:35.220Z,10.27
2018-12-06T11:14:18.153Z,10.26
2018-12-06T11:17:00.967Z,10.27
2018-12-06T11:19:45.816Z,10.32
2018-12-06T11:22:28.718Z,10.44
2018-12-06T11:25:11.260Z,10.47
2018-12-06T11:27:53.526Z,10.42
2018-12-06T11:30:37.658Z,10.43
2018-12-06T11:33:19.573Z,10.40
2018-12-06T11:36:05.013Z,10.41
2018-12-06T11:38:47.991Z,10.45
2018-12-06T11:41:30.506Z,10.52
2018-12-06T11:44:15.245Z,10.53
2018-12-06T11:46:58.693Z,10.57
2018-12-06T11:49:41.191Z,10.52
2018-12-06T11:52:23.987Z,10.56
2018-12-06T11:55:07.607Z,10.55
2018-12-06T11:57:50.836Z,10.58
2018-12-06T12:00:32.843Z,10.60
2018-12-06T12:03:16.258Z,10.65
2018-12-06T12:05:59.234Z,10.69
2018-12-06T12:08:41.321Z,10.68
2018-12-06T12:11:26.561Z,10.73
2018-12-06T12:14:09.570Z,10.65
2018-12-06T12:16:53.047Z,10.75
2018-12-06T12:19:35.928Z,10.75
2018-12-06T12:22:17.996Z,10.72
2018-12-06T12:25:01.667Z,10.68
2018-12-06T12:27:45.987Z,10.67
2018-12-06T12:30:35.958Z,10.71
2018-12-06T12:33:26.622Z,10.70
2018-12-06T12:36:10.548Z,10.67
2018-12-06T12:38:52.417Z,10.65
2018-12-06T12:41:35.579Z,10.68
2018-12-06T12:44:19.559Z,10.65
2018-12-06T12:47:02.737Z,10.68
2018-12-06T12:49:46.179Z,10.73
2018-12-06T12:52:28.963Z,10.74
2018-12-06T12:55:12.696Z,10.71
2018-12-06T12:57:56.992Z,10.78
2018-12-06T13:00:39.400Z,10.78
2018-12-06T13:03:22.446Z,10.81
2018-12-06T13:06:06.364Z,10.85
2018-12-06T13:08:48.770Z,10.91
2018-12-06T13:11:33.435Z,10.99
2018-12-06T13:14:17.271Z,11.04
2018-12-06T13:16:59.896Z,10.97
2018-12-06T13:19:42.396Z,11.04
2018-12-06T13:22:25.334Z,11.08
2018-12-06T13:25:08.367Z,11.07
2018-12-06T13:27:51.788Z,11.09
2018-12-06T13:30:34.405Z,11.08
2018-12-06T13:33:20.086Z,11.16
2018-12-06T13:36:02.018Z,11.19
2018-12-06T13:38:47.161Z,11.24
2018-12-06T13:41:29.972Z,11.19
2018-12-06T13:44:14.540Z,11.24
2018-12-06T13:46:58.979Z,11.30
2018-12-06T13:49:42.013Z,11.21
2018-12-06T13:52:24.575Z,11.24
2018-12-06T13:55:08.373Z,11.15
2018-12-06T13:57:52.230Z,11.20
2018-12-06T14:00:36.147Z,11.19
2018-12-06T14:03:19.557Z,11.16
2018-12-06T14:06:04.109Z,11.22
2018-12-06T14:08:47.436Z,11.14
2018-12-06T14:11:32.721Z,11.14
2018-12-06T14:14:15.610Z,11.05
2018-12-06T14:16:58.963Z,11.07
2018-12-06T14:19:40.992Z,11.02
2018-12-06T14:22:25.119Z,11.07
2018-12-06T14:25:08.563Z,11.11
2018-12-06T14:27:52.404Z,11.05
2018-12-06T14:30:37.895Z,11.08
2018-12-06T14:33:36.829Z,11.00
2018-12-06T14:36:20.397Z,11.02
2018-12-06T14:39:06.313Z,11.01
2018-12-06T14:41:49.094Z,11.02
2018-12-06T14:44:32.963Z,11.00
2018-12-06T14:47:15.704Z,10.99
2018-12-06T14:49:59.620Z,10.98
2018-12-06T14:52:43.183Z,11.01
2018-12-06T14:55:26.558Z,10.95
2018-12-06T14:58:11.544Z,10.99
2018-12-06T15:00:57.631Z,11.01
2018-12-06T15:03:42.215Z,11.02
2018-12-06T15:06:28.078Z,10.99
2018-12-06T15:09:14.121Z,10.97
2018-12-06T15:11:58.731Z,10.97
2018-12-06T15:14:42.331Z,10.98
2018-12-06T15:17:26.675Z,11.01
2018-12-06T15:20:12.903Z,11.00
2018-12-06T15:22:57.000Z,11.00
2018-12-06T15:25:42.149Z,10.98
2018-12-06T15:28:26.618Z,10.98
2018-12-06T15:31:10.013Z,10.97
2018-12-06T15:33:56.044Z,10.96
2018-12-06T15:36:40.461Z,10.99
2018-12-06T15:39:28.229Z,11.03
2018-12-06T15:42:12.824Z,11.04
2018-12-06T15:45:19.275Z,11.02
2018-12-06T15:48:04.295Z,11.02
2018-12-06T15:50:48.637Z,11.04
2018-12-06T15:53:35.125Z,11.03
2018-12-06T15:56:18.889Z,11.02
2018-12-06T15:59:03.830Z,11.09
2018-12-06T16:01:47.562Z,11.12
2018-12-06T16:04:32.075Z,11.05
2018-12-06T16:07:15.605Z,11.07
2018-12-06T16:09:59.597Z,11.09
2018-12-06T16:12:43.399Z,11.11
2018-12-06T16:15:27.629Z,11.16
2018-12-06T16:18:13.083Z,11.13
2018-12-06T16:21:01.396Z,11.15
2018-12-06T16:23:44.277Z,11.18
2018-12-06T16:26:29.239Z,11.16
2018-12-06T16:29:12.522Z,11.18
2018-12-06T16:31:56.617Z,11.15
2018-12-06T16:34:40.047Z,11.23
2018-12-06T16:37:26.121Z,11.24
2018-12-06T16:40:08.981Z,11.25
2018-12-06T16:42:52.640Z,11.29
2018-12-06T16:45:37.654Z,11.29
2018-12-06T16:48:23.985Z,11.30
2018-12-06T16:51:08.959Z,11.34
2018-12-06T16:53:55.488Z,11.33
2018-12-06T16:56:40.940Z,11.36
2018-12-06T16:59:24.732Z,11.43
2018-12-06T17:02:07.204Z,11.38
2018-12-06T17:04:50.941Z,11.43
2018-12-06T17:07:34.806Z,11.41
2018-12-06T17:10:22.759Z,11.43
2018-12-06T17:13:06.599Z,11.44
2018-12-06T17:15:51.749Z,11.44
2018-12-06T17:18:35.409Z,11.49
2018-12-06T17:21:19.044Z,11.48
2018-12-06T17:24:02.695Z,11.46
2018-12-06T17:26:53.012Z,11.48
2018-12-06T17:29:42.328Z,11.57
2018-12-06T17:32:25.806Z,11.56
2018-12-06T17:35:10.477Z,11.50
2018-12-06T17:37:55.848Z,11.54
2018-12-06T17:40:40.110Z,11.54
2018-12-06T17:43:23.928Z,11.59
2018-12-06T17:46:08.903Z,11.62
2018-12-06T17:48:52.822Z,11.58
2018-12-06T17:51:37.094Z,11.59
2018-12-06T17:54:24.236Z,11.57
2018-12-06T17:57:07.436Z,11.57
2018-12-06T17:59:50.736Z,11.54
2018-12-06T18:02:36.557Z,11.53
2018-12-06T18:05:20.297Z,11.52
2018-12-06T18:08:05.484Z,11.53
2018-12-06T18:10:50.187Z,11.47
2018-12-06T18:13:35.148Z,11.45
2018-12-06T18:16:19.706Z,11.40
2018-12-06T18:19:03.855Z,11.40
2018-12-06T18:21:47.115Z,11.44
2018-12-06T18:24:32.366Z,11.47
2018-12-06T18:27:16.987Z,11.43
2018-12-06T18:30:00.895Z,11.46
2018-12-06T18:32:45.113Z,11.45
2018-12-06T18:35:29.869Z,11.46
2018-12-06T18:38:14.459Z,11.43
2018-12-06T18:40:57.427Z,11.41
2018-12-06T18:43:43.389Z,11.43
2018-12-06T18:46:27.977Z,11.44
2018-12-06T18:49:13.341Z,11.41
2018-12-06T18:51:57.872Z,11.46
2018-12-06T18:54:41.659Z,11.40
2018-12-06T18:57:24.371Z,11.44
2018-12-06T19:00:11.725Z,11.48
2018-12-06T19:02:56.436Z,11.46
2018-12-06T19:05:39.974Z,11.50
2018-12-06T19:08:26.938Z,11.51
2018-12-06T19:11:11.716Z,11.53
2018-12-06T19:13:55.258Z,11.49
2018-12-06T19:16:38.917Z,11.48
2018-12-06T19:19:24.129Z,11.54
2018-12-06T19:22:08.932Z,11.54
2018-12-06T19:24:53.432Z,11.56
2018-12-06T19:27:39.609Z,11.53
2018-12-06T19:30:23.852Z,11.56
2018-12-06T19:33:08.606Z,11.54
2018-12-06T19:35:52.803Z,11.55
2018-12-06T19:38:37.051Z,11.54
2018-12-06T19:41:20.837Z,11.53
2018-12-06T19:44:04.486Z,11.54
2018-12-06T19:46:50.154Z,11.53
2018-12-06T19:49:34.915Z,11.56
2018-12-06T19:52:19.097Z,11.56
2018-12-06T19:55:02.214Z,11.55
2018-12-06T19:57:46.874Z,11.55
2018-12-06T20:00:31.028Z,11.52
2018-12-06T20:03:14.582Z,11.54
2018-12-06T20:05:59.713Z,11.52
2018-12-06T20:08:45.645Z,11.50
2018-12-06T20:11:30.248Z,11.49
2018-12-06T20:14:15.593Z,11.48
2018-12-06T20:17:02.716Z,11.47
2018-12-06T20:19:46.694Z,11.45
2018-12-06T20:22:33.204Z,11.45
2018-12-06T20:25:16.794Z,11.49
2018-12-06T20:28:00.917Z,11.46
2018-12-06T20:30:45.372Z,11.45
2018-12-06T20:33:28.820Z,11.48
2018-12-06T20:36:14.225Z,11.50
2018-12-06T20:38:57.099Z,11.49
2018-12-06T20:41:45.161Z,11.54
2018-12-06T20:44:28.672Z,11.51
2018-12-06T20:47:16.897Z,11.52
2018-12-06T20:50:00.072Z,11.54
2018-12-06T20:52:43.598Z,11.54
2018-12-06T20:55:27.909Z,11.53
2018-12-06T20:58:15.223Z,11.55
2018-12-06T21:01:00.487Z,11.55
2018-12-06T21:03:46.052Z,11.52
2018-12-06T21:06:30.279Z,11.52
2018-12-06T21:09:13.841Z,11.54
2018-12-06T21:11:55.812Z,11.52
2018-12-06T21:14:39.043Z,11.56
2018-12-06T21:17:24.558Z,11.53
2018-12-06T21:20:09.439Z,11.59
2018-12-06T21:22:52.863Z,11.56
2018-12-06T21:25:35.991Z,11.54
2018-12-06T21:28:19.112Z,11.60
2018-12-06T21:31:03.410Z,11.58
2018-12-06T21:33:47.249Z,11.61
2018-12-06T21:36:31.197Z,11.63
2018-12-06T21:39:14.370Z,11.66
2018-12-06T21:41:57.265Z,11.63
2018-12-06T21:44:39.919Z,11.65
2018-12-06T21:47:29.590Z,11.68
2018-12-06T21:50:16.866Z,11.71
2018-12-06T21:53:04.791Z,11.68
2018-12-06T21:55:56.165Z,11.76
2018-12-06T21:58:50.459Z,11.75
2018-12-06T22:01:35.212Z,11.76
2018-12-06T22:04:17.475Z,11.79
2018-12-06T22:07:01.842Z,11.78
2018-12-06T22:09:45.478Z,11.81
2018-12-06T22:12:27.851Z,11.81
2018-12-06T22:15:11.994Z,11.84
2018-12-06T22:17:55.270Z,11.87
2018-12-06T22:20:37.705Z,11.88
2018-12-06T22:23:21.623Z,11.88
2018-12-06T22:26:04.447Z,11.87
2018-12-06T22:28:47.824Z,11.87
2018-12-06T22:31:32.889Z,11.90
2018-12-06T22:34:15.324Z,11.87
2018-12-06T22:36:58.612Z,11.90
2018-12-06T22:39:43.143Z,11.88
2018-12-06T22:42:26.723Z,11.90
2018-12-06T22:45:25.717Z,11.89
2018-12-06T22:48:09.336Z,11.88
2018-12-06T22:50:51.924Z,11.88
2018-12-06T22:53:35.067Z,11.89
2018-12-06T22:56:17.899Z,11.81
2018-12-06T22:59:00.202Z,11.79
2018-12-06T23:01:44.215Z,11.78
2018-12-06T23:04:26.503Z,11.75
2018-12-06T23:07:09.747Z,11.72
2018-12-06T23:09:53.489Z,11.74
2018-12-06T23:12:35.514Z,11.68
2018-12-06T23:15:20.082Z,11.61
2018-12-06T23:18:03.273Z,11.51
2018-12-06T23:20:45.775Z,11.46
2018-12-06T23:23:28.020Z,11.43
2018-12-06T23:26:10.795Z,11.42
2018-12-06T23:28:53.158Z,11.37
2018-12-06T23:31:36.810Z,11.36
2018-12-06T23:34:19.147Z,11.33
2018-12-06T23:37:01.903Z,11.31
2018-12-06T23:39:44.181Z,11.27
2018-12-06T23:42:27.667Z,11.26
2018-12-06T23:45:12.155Z,11.26
2018-12-06T23:47:56.041Z,11.23
2018-12-06T23:50:38.431Z,11.25
2018-12-06T23:53:20.749Z,11.21
2018-12-06T23:56:03.569Z,11.19
2018-12-06T23:58:46.172Z,11.24
